createdAt,value
2019-03-31T00:04:06.365Z,7.09
2019-03-31T00:09:01.026Z,6.96
2019-03-31T00:13:56.395Z,6.89
2019-03-31T00:18:50.982Z,6.93
2019-03-31T00:23:45.555Z,6.79
2019-03-31T00:28:40.247Z,6.76
2019-03-31T00:33:34.895Z,6.74
2019-03-31T00:38:29.498Z,6.59
2019-03-31T00:43:24.075Z,6.55
2019-03-31T00:48:18.673Z,6.51
2019-03-31T00:53:13.246Z,6.44
2019-03-31T00:58:07.856Z,6.37
2019-03-31T01:03:02.434Z,6.28
2019-03-31T01:07:57.263Z,6.32
2019-03-31T01:12:52.352Z,6.30
2019-03-31T01:17:47.619Z,6.30
2019-03-31T01:22:42.282Z,6.22
2019-03-31T01:27:37.582Z,6.24
2019-03-31T01:32:32.305Z,6.21
2019-03-31T01:37:27.614Z,6.09
2019-03-31T01:42:22.327Z,6.01
2019-03-31T01:47:16.991Z,5.99
2019-03-31T01:52:11.905Z,5.95
2019-03-31T01:57:06.752Z,5.93
2019-03-31T02:02:04.459Z,5.76
2019-03-31T02:06:57.948Z,5.58
2019-03-31T02:11:52.513Z,5.57
2019-03-31T02:16:47.124Z,5.52
2019-03-31T02:21:41.687Z,5.51
2019-03-31T02:26:36.306Z,5.55
2019-03-31T02:31:30.955Z,5.49
2019-03-31T02:36:25.855Z,5.49
2019-03-31T02:41:20.452Z,5.41
2019-03-31T02:46:15.584Z,5.29
2019-03-31T02:51:10.339Z,5.24
2019-03-31T02:56:06.302Z,5.15
2019-03-31T03:01:01.188Z,5.13
2019-03-31T03:05:59.542Z,5.16
2019-03-31T03:10:54.629Z,5.25
2019-03-31T03:16:08.903Z,5.20
2019-03-31T03:21:03.451Z,5.17
2019-03-31T03:25:58.470Z,5.11
2019-03-31T03:30:53.120Z,5.10
2019-03-31T03:35:47.927Z,5.10
2019-03-31T03:40:42.522Z,5.04
2019-03-31T03:45:37.308Z,4.99
2019-03-31T03:50:31.913Z,4.92
2019-03-31T03:55:26.556Z,5.00
2019-03-31T04:00:21.141Z,4.90
2019-03-31T04:05:15.742Z,4.80
2019-03-31T04:10:43.374Z,4.70
2019-03-31T04:15:38.029Z,4.54
2019-03-31T04:20:32.623Z,4.50
2019-03-31T04:25:27.197Z,4.46
2019-03-31T04:30:21.783Z,4.39
2019-03-31T04:35:16.381Z,4.45
2019-03-31T04:40:10.956Z,4.40
2019-03-31T04:45:07.280Z,4.35
2019-03-31T04:50:01.941Z,4.32
2019-03-31T04:54:56.519Z,4.32
2019-03-31T04:59:51.106Z,4.34
2019-03-31T05:04:45.685Z,4.37
2019-03-31T05:09:40.289Z,4.29
2019-03-31T05:14:34.879Z,4.23
2019-03-31T05:19:29.439Z,4.24
2019-03-31T05:24:24.035Z,4.48
2019-03-31T05:29:18.719Z,4.89
2019-03-31T05:34:19.208Z,5.28
2019-03-31T05:39:09.617Z,5.68
2019-03-31T05:44:05.999Z,6.34
2019-03-31T05:49:00.794Z,7.12
2019-03-31T05:53:55.366Z,7.78
2019-03-31T05:58:49.959Z,8.29
2019-03-31T06:03:44.528Z,9.17
2019-03-31T06:08:39.145Z,9.79
2019-03-31T06:13:33.833Z,10.26
2019-03-31T06:18:28.433Z,10.58
2019-03-31T06:23:23.015Z,10.95
2019-03-31T06:28:17.684Z,10.73
2019-03-31T06:33:12.273Z,10.89
2019-03-31T06:38:19.152Z,11.01
2019-03-31T06:43:13.742Z,10.93
2019-03-31T06:48:08.426Z,11.04
2019-03-31T06:53:03.011Z,11.18
2019-03-31T06:57:57.605Z,11.00
2019-03-31T07:02:52.188Z,10.90
2019-03-31T07:07:46.798Z,10.58
2019-03-31T07:12:41.377Z,10.35
2019-03-31T07:17:35.978Z,10.33
2019-03-31T07:22:30.567Z,10.59
2019-03-31T07:27:25.177Z,10.64
2019-03-31T07:32:19.767Z,10.76
2019-03-31T07:37:14.367Z,10.91
2019-03-31T07:42:10.125Z,10.88
2019-03-31T07:47:04.928Z,11.16
2019-03-31T07:51:59.510Z,11.12
2019-03-31T07:56:54.105Z,11.28
2019-03-31T08:01:48.689Z,11.57
2019-03-31T08:06:43.325Z,11.80
2019-03-31T08:11:37.906Z,11.98
2019-03-31T08:16:32.581Z,12.16
2019-03-31T08:21:27.166Z,11.91
2019-03-31T08:26:21.793Z,12.06
2019-03-31T08:31:16.370Z,11.99
2019-03-31T08:36:10.982Z,12.08
2019-03-31T08:41:05.628Z,12.28
2019-03-31T08:46:01.002Z,12.49
2019-03-31T08:50:55.583Z,12.46
2019-03-31T08:55:50.190Z,12.50
2019-03-31T09:00:49.088Z,11.97
2019-03-31T09:05:43.705Z,12.45
2019-03-31T09:10:38.287Z,12.55
2019-03-31T09:15:32.899Z,12.49
2019-03-31T09:20:27.486Z,12.47
2019-03-31T09:25:22.088Z,13.00
2019-03-31T09:30:18.381Z,13.22
2019-03-31T09:35:13.179Z,13.36
2019-03-31T09:40:10.389Z,13.40
2019-03-31T09:45:07.520Z,13.37
2019-03-31T09:50:02.105Z,13.53
2019-03-31T09:54:56.712Z,13.72
2019-03-31T09:59:51.296Z,14.05
2019-03-31T10:04:45.908Z,14.28
2019-03-31T10:09:40.963Z,14.31
2019-03-31T10:14:35.548Z,14.40
2019-03-31T10:19:30.170Z,14.51
2019-03-31T10:24:24.758Z,14.71
2019-03-31T10:29:19.411Z,14.85
2019-03-31T10:34:14.004Z,14.99
2019-03-31T10:39:09.695Z,15.07
2019-03-31T10:44:04.608Z,14.95
2019-03-31T10:48:59.189Z,15.30
2019-03-31T10:53:53.779Z,15.50
2019-03-31T10:58:48.370Z,15.72
2019-03-31T11:03:42.970Z,15.80
2019-03-31T11:08:37.564Z,15.67
2019-03-31T11:13:32.159Z,16.29
2019-03-31T11:18:26.745Z,16.45
2019-03-31T11:23:23.004Z,16.68
2019-03-31T11:28:17.674Z,16.88
2019-03-31T11:33:12.277Z,16.90
2019-03-31T11:38:06.858Z,17.14
2019-03-31T11:43:01.442Z,17.15
2019-03-31T11:47:56.041Z,17.31
2019-03-31T11:52:50.631Z,17.51
2019-03-31T11:57:46.049Z,17.63
2019-03-31T12:02:40.648Z,17.96
2019-03-31T12:07:46.061Z,18.00
2019-03-31T12:12:31.556Z,17.95
2019-03-31T12:17:26.131Z,18.18
2019-03-31T12:22:20.737Z,18.30
2019-03-31T12:27:15.331Z,18.27
2019-03-31T12:32:09.930Z,18.41
2019-03-31T12:37:04.575Z,18.49
2019-03-31T12:41:59.174Z,18.62
2019-03-31T12:46:56.152Z,18.61
2019-03-31T12:51:50.075Z,18.54
2019-03-31T12:56:44.662Z,18.71
2019-03-31T13:01:39.252Z,18.59
2019-03-31T13:06:33.824Z,18.80
2019-03-31T13:11:28.447Z,18.96
2019-03-31T13:16:23.004Z,19.22
2019-03-31T13:21:17.620Z,18.89
2019-03-31T13:26:12.198Z,18.99
2019-03-31T13:31:06.798Z,19.09
2019-03-31T13:36:01.377Z,19.03
2019-03-31T13:40:55.992Z,19.05
2019-03-31T13:45:50.564Z,19.23
2019-03-31T13:50:45.159Z,19.22
2019-03-31T13:55:39.729Z,19.57
2019-03-31T14:00:38.370Z,19.41
2019-03-31T14:05:33.046Z,19.45
2019-03-31T14:10:27.646Z,19.74
2019-03-31T14:15:22.233Z,19.54
2019-03-31T14:20:16.891Z,19.66
2019-03-31T14:25:11.605Z,19.77
2019-03-31T14:30:09.412Z,19.65
2019-03-31T14:35:04.941Z,19.20
2019-03-31T14:39:59.553Z,19.33
2019-03-31T14:44:54.217Z,19.32
2019-03-31T14:49:48.807Z,19.42
2019-03-31T14:54:43.385Z,19.44
2019-03-31T14:59:37.976Z,19.45
2019-03-31T15:04:32.540Z,19.48
2019-03-31T15:09:27.140Z,19.42
2019-03-31T15:14:21.725Z,19.38
2019-03-31T15:19:16.326Z,19.34
2019-03-31T15:24:10.904Z,19.57
2019-03-31T15:29:05.768Z,19.60
2019-03-31T15:34:00.408Z,19.27
2019-03-31T15:39:08.152Z,19.13
2019-03-31T15:43:51.342Z,18.94
2019-03-31T15:48:45.946Z,18.94
2019-03-31T15:53:40.536Z,18.74
2019-03-31T15:58:35.134Z,18.77
2019-03-31T16:03:29.751Z,18.75
2019-03-31T16:08:24.307Z,18.78
2019-03-31T16:13:19.068Z,18.82
2019-03-31T16:18:13.665Z,18.82
2019-03-31T16:23:08.244Z,18.88
2019-03-31T16:28:02.835Z,18.86
2019-03-31T16:32:57.413Z,18.81
2019-03-31T16:37:52.094Z,18.76
2019-03-31T16:42:46.693Z,18.68
2019-03-31T16:47:41.316Z,18.54
2019-03-31T16:52:35.918Z,18.58
2019-03-31T16:57:30.537Z,18.52
2019-03-31T17:02:25.110Z,18.38
2019-03-31T17:07:19.704Z,18.31
2019-03-31T17:12:14.355Z,18.26
2019-03-31T17:17:08.989Z,18.08
2019-03-31T17:22:03.571Z,17.89
2019-03-31T17:26:58.155Z,17.73
2019-03-31T17:31:52.727Z,17.65
2019-03-31T17:36:47.324Z,17.49
2019-03-31T17:41:41.906Z,17.25
2019-03-31T17:46:36.484Z,17.16
2019-03-31T17:51:31.065Z,17.06
2019-03-31T17:56:25.666Z,16.77
2019-03-31T18:01:20.247Z,16.65
2019-03-31T18:06:14.856Z,16.58
2019-03-31T18:11:09.439Z,16.44
2019-03-31T18:16:04.255Z,16.30
2019-03-31T18:21:00.131Z,16.39
2019-03-31T18:25:54.727Z,16.26
2019-03-31T18:30:49.303Z,16.16
2019-03-31T18:35:43.915Z,16.12
2019-03-31T18:40:39.239Z,15.90
2019-03-31T18:45:33.829Z,15.88
2019-03-31T18:50:28.416Z,15.83
2019-03-31T18:55:40.844Z,15.66
2019-03-31T19:00:37.077Z,15.58
2019-03-31T19:05:49.093Z,15.56
2019-03-31T19:10:58.428Z,15.41
2019-03-31T19:16:10.752Z,15.56
2019-03-31T19:21:11.455Z,15.34
2019-03-31T19:26:06.701Z,15.21
2019-03-31T19:31:18.791Z,15.23
2019-03-31T19:36:30.881Z,15.06
2019-03-31T19:41:39.142Z,15.05
2019-03-31T19:46:45.583Z,15.04
2019-03-31T19:51:58.036Z,14.98
2019-03-31T19:57:05.450Z,14.96
2019-03-31T20:02:19.776Z,14.73
2019-03-31T20:07:31.310Z,14.61
2019-03-31T20:12:30.191Z,14.54
2019-03-31T20:17:29.596Z,14.60
2019-03-31T20:22:34.331Z,14.49
2019-03-31T20:27:39.806Z,14.54
2019-03-31T20:32:52.051Z,14.37
2019-03-31T20:37:54.032Z,14.45
2019-03-31T20:42:48.408Z,14.48
2019-03-31T20:47:42.989Z,14.28
2019-03-31T20:52:37.606Z,14.09
2019-03-31T20:57:32.207Z,14.08
2019-03-31T21:02:26.786Z,13.76
2019-03-31T21:07:21.371Z,13.72
2019-03-31T21:12:15.966Z,13.64
2019-03-31T21:17:10.627Z,13.59
2019-03-31T21:22:05.324Z,13.54
2019-03-31T21:26:59.920Z,13.56
2019-03-31T21:31:55.477Z,13.39
2019-03-31T21:36:50.249Z,13.07
2019-03-31T21:41:44.856Z,13.04
2019-03-31T21:46:39.479Z,13.10
2019-03-31T21:51:34.071Z,12.90
2019-03-31T21:56:28.730Z,12.80
2019-03-31T22:01:23.481Z,12.69
2019-03-31T22:06:18.073Z,12.64
2019-03-31T22:11:13.236Z,12.58
2019-03-31T22:16:07.849Z,12.46
2019-03-31T22:21:02.973Z,12.37
2019-03-31T22:25:57.639Z,12.37
2019-03-31T22:30:52.230Z,12.45
2019-03-31T22:36:05.942Z,12.29
2019-03-31T22:41:00.536Z,12.23
2019-03-31T22:45:55.137Z,12.11
2019-03-31T22:50:49.714Z,12.08
2019-03-31T22:55:44.452Z,12.06
2019-03-31T23:00:39.033Z,11.94
2019-03-31T23:05:34.414Z,11.97
2019-03-31T23:10:28.991Z,11.91
2019-03-31T23:15:23.602Z,11.79
2019-03-31T23:20:18.189Z,11.73
2019-03-31T23:25:13.183Z,11.68
2019-03-31T23:30:10.743Z,11.75
2019-03-31T23:35:07.584Z,11.66
2019-03-31T23:40:02.557Z,11.57
2019-03-31T23:44:58.212Z,11.36
2019-03-31T23:49:52.805Z,11.30
2019-03-31T23:54:47.441Z,11.10
2019-03-31T23:59:42.018Z,10.80
